sensor_id;sensor_type;location;lat;lon;timestamp;P1;durP1;ratioP1;P2;durP2;ratioP2
12577;SDS011;6354;51.026;8.968;2022-10-31T00:00:48;194.07;;;60.67;;
12577;SDS011;6354;51.026;8.968;2022-10-31T00:03:16;608.47;;;171.57;;
12577;SDS011;6354;51.026;8.968;2022-10-31T00:05:45;793.13;;;266.70;;
12577;SDS011;6354;51.026;8.968;2022-10-31T00:08:15;403.47;;;109.73;;
12577;SDS011;6354;51.026;8.968;2022-10-31T00:10:44;236.33;;;68.73;;
12577;SDS011;6354;51.026;8.968;2022-10-31T00:13:13;626.23;;;204.83;;
12577;SDS011;6354;51.026;8.968;2022-10-31T00:15:43;165.60;;;63.87;;
12577;SDS011;6354;51.026;8.968;2022-10-31T00:18:11;334.40;;;129.37;;
12577;SDS011;6354;51.026;8.968;2022-10-31T00:20:40;602.13;;;241.60;;
12577;SDS011;6354;51.026;8.968;2022-10-31T00:23:08;213.80;;;61.77;;
12577;SDS011;6354;51.026;8.968;2022-10-31T00:25:38;593.27;;;271.10;;
12577;SDS011;6354;51.026;8.968;2022-10-31T00:28:07;552.83;;;248.97;;
12577;SDS011;6354;51.026;8.968;2022-10-31T00:30:37;348.07;;;160.10;;
12577;SDS011;6354;51.026;8.968;2022-10-31T00:33:07;231.53;;;66.90;;
12577;SDS011;6354;51.026;8.968;2022-10-31T00:35:35;46.80;;;21.20;;
12577;SDS011;6354;51.026;8.968;2022-10-31T00:38:03;412.23;;;121.73;;
12577;SDS011;6354;51.026;8.968;2022-10-31T00:40:31;439.07;;;156.33;;
12577;SDS011;6354;51.026;8.968;2022-10-31T00:42:59;412.60;;;177.50;;
12577;SDS011;6354;51.026;8.968;2022-10-31T00:45:28;193.77;;;83.27;;
12577;SDS011;6354;51.026;8.968;2022-10-31T00:47:56;165.03;;;51.70;;
12577;SDS011;6354;51.026;8.968;2022-10-31T00:50:26;507.00;;;189.73;;
12577;SDS011;6354;51.026;8.968;2022-10-31T00:52:54;664.20;;;202.27;;
12577;SDS011;6354;51.026;8.968;2022-10-31T00:55:23;218.17;;;76.60;;
12577;SDS011;6354;51.026;8.968;2022-10-31T00:57:51;342.67;;;119.80;;
12577;SDS011;6354;51.026;8.968;2022-10-31T01:00:19;538.70;;;145.40;;
12577;SDS011;6354;51.026;8.968;2022-10-31T01:02:47;1099.17;;;292.30;;
12577;SDS011;6354;51.026;8.968;2022-10-31T01:05:15;282.60;;;73.77;;
12577;SDS011;6354;51.026;8.968;2022-10-31T01:07:45;526.87;;;180.53;;
12577;SDS011;6354;51.026;8.968;2022-10-31T01:10:13;252.13;;;83.30;;
12577;SDS011;6354;51.026;8.968;2022-10-31T01:12:43;536.00;;;205.50;;
12577;SDS011;6354;51.026;8.968;2022-10-31T01:15:13;345.70;;;156.57;;
12577;SDS011;6354;51.026;8.968;2022-10-31T01:17:42;407.80;;;148.37;;
12577;SDS011;6354;51.026;8.968;2022-10-31T01:20:11;577.90;;;271.03;;
12577;SDS011;6354;51.026;8.968;2022-10-31T01:22:41;271.90;;;135.87;;
12577;SDS011;6354;51.026;8.968;2022-10-31T01:25:10;269.53;;;112.27;;
12577;SDS011;6354;51.026;8.968;2022-10-31T01:27:39;383.97;;;135.83;;
12577;SDS011;6354;51.026;8.968;2022-10-31T01:30:07;1258.80;;;358.00;;
12577;SDS011;6354;51.026;8.968;2022-10-31T01:32:36;549.47;;;139.63;;
12577;SDS011;6354;51.026;8.968;2022-10-31T01:35:04;881.30;;;244.67;;
12577;SDS011;6354;51.026;8.968;2022-10-31T01:37:32;595.07;;;213.50;;
12577;SDS011;6354;51.026;8.968;2022-10-31T01:40:00;492.60;;;181.07;;
12577;SDS011;6354;51.026;8.968;2022-10-31T01:42:30;252.33;;;85.47;;
12577;SDS011;6354;51.026;8.968;2022-10-31T01:44:59;200.67;;;71.37;;
12577;SDS011;6354;51.026;8.968;2022-10-31T01:47:31;532.83;;;193.53;;
12577;SDS011;6354;51.026;8.968;2022-10-31T01:50:05;1999.90;;;451.00;;
12577;SDS011;6354;51.026;8.968;2022-10-31T01:52:38;1448.87;;;347.00;;
12577;SDS011;6354;51.026;8.968;2022-10-31T01:55:11;1029.43;;;291.73;;
12577;SDS011;6354;51.026;8.968;2022-10-31T01:57:45;474.83;;;162.77;;
12577;SDS011;6354;51.026;8.968;2022-10-31T02:00:15;341.50;;;107.47;;
12577;SDS011;6354;51.026;8.968;2022-10-31T02:02:44;1663.47;;;360.70;;
12577;SDS011;6354;51.026;8.968;2022-10-31T02:05:14;457.87;;;143.37;;
12577;SDS011;6354;51.026;8.968;2022-10-31T02:07:46;276.70;;;79.47;;
12577;SDS011;6354;51.026;8.968;2022-10-31T02:10:20;208.53;;;73.63;;
12577;SDS011;6354;51.026;8.968;2022-10-31T02:12:51;438.07;;;172.60;;
12577;SDS011;6354;51.026;8.968;2022-10-31T02:15:22;354.80;;;138.87;;
12577;SDS011;6354;51.026;8.968;2022-10-31T02:17:51;1308.37;;;325.77;;
12577;SDS011;6354;51.026;8.968;2022-10-31T02:20:20;299.00;;;128.17;;
12577;SDS011;6354;51.026;8.968;2022-10-31T02:23:00;216.77;;;75.93;;
12577;SDS011;6354;51.026;8.968;2022-10-31T02:25:51;355.97;;;167.93;;
12577;SDS011;6354;51.026;8.968;2022-10-31T02:28:50;293.13;;;115.73;;
12577;SDS011;6354;51.026;8.968;2022-10-31T02:31:33;418.03;;;165.83;;
12577;SDS011;6354;51.026;8.968;2022-10-31T02:34:10;576.07;;;257.70;;
12577;SDS011;6354;51.026;8.968;2022-10-31T02:36:46;418.23;;;147.20;;
12577;SDS011;6354;51.026;8.968;2022-10-31T02:39:22;276.03;;;91.07;;
12577;SDS011;6354;51.026;8.968;2022-10-31T02:41:56;1381.83;;;299.80;;
12577;SDS011;6354;51.026;8.968;2022-10-31T02:44:33;1297.93;;;315.80;;
12577;SDS011;6354;51.026;8.968;2022-10-31T02:47:08;892.93;;;214.20;;
12577;SDS011;6354;51.026;8.968;2022-10-31T02:49:40;935.13;;;221.97;;
12577;SDS011;6354;51.026;8.968;2022-10-31T02:52:13;606.23;;;217.33;;
12577;SDS011;6354;51.026;8.968;2022-10-31T02:54:45;699.53;;;206.77;;
12577;SDS011;6354;51.026;8.968;2022-10-31T02:57:14;883.63;;;225.03;;
12577;SDS011;6354;51.026;8.968;2022-10-31T02:59:46;645.63;;;179.83;;
12577;SDS011;6354;51.026;8.968;2022-10-31T03:02:23;757.80;;;246.80;;
12577;SDS011;6354;51.026;8.968;2022-10-31T03:08:14;224.90;;;77.43;;
12577;SDS011;6354;51.026;8.968;2022-10-31T03:10:51;507.83;;;226.73;;
12577;SDS011;6354;51.026;8.968;2022-10-31T03:13:24;539.13;;;248.53;;
12577;SDS011;6354;51.026;8.968;2022-10-31T03:16:02;230.10;;;90.43;;
12577;SDS011;6354;51.026;8.968;2022-10-31T03:18:39;565.67;;;233.27;;
12577;SDS011;6354;51.026;8.968;2022-10-31T03:21:10;47.13;;;21.33;;
12577;SDS011;6354;51.026;8.968;2022-10-31T03:23:43;184.53;;;88.10;;
12577;SDS011;6354;51.026;8.968;2022-10-31T03:26:13;178.87;;;69.20;;
12577;SDS011;6354;51.026;8.968;2022-10-31T03:28:43;257.90;;;95.50;;
12577;SDS011;6354;51.026;8.968;2022-10-31T03:31:17;270.90;;;117.43;;
12577;SDS011;6354;51.026;8.968;2022-10-31T03:33:52;637.47;;;128.13;;
12577;SDS011;6354;51.026;8.968;2022-10-31T03:36:21;300.43;;;99.80;;
12577;SDS011;6354;51.026;8.968;2022-10-31T03:38:50;1211.37;;;299.97;;
12577;SDS011;6354;51.026;8.968;2022-10-31T03:41:20;365.20;;;117.00;;
12577;SDS011;6354;51.026;8.968;2022-10-31T03:43:52;619.33;;;176.10;;
12577;SDS011;6354;51.026;8.968;2022-10-31T03:46:24;391.17;;;115.37;;
12577;SDS011;6354;51.026;8.968;2022-10-31T03:48:54;311.80;;;92.53;;
12577;SDS011;6354;51.026;8.968;2022-10-31T03:51:24;152.40;;;63.03;;
12577;SDS011;6354;51.026;8.968;2022-10-31T03:53:57;466.67;;;159.17;;
12577;SDS011;6354;51.026;8.968;2022-10-31T03:56:33;621.77;;;155.60;;
12577;SDS011;6354;51.026;8.968;2022-10-31T03:59:05;1076.70;;;263.70;;
12577;SDS011;6354;51.026;8.968;2022-10-31T04:01:37;352.70;;;90.73;;
12577;SDS011;6354;51.026;8.968;2022-10-31T04:04:10;310.30;;;103.57;;
12577;SDS011;6354;51.026;8.968;2022-10-31T04:06:39;353.57;;;124.87;;
12577;SDS011;6354;51.026;8.968;2022-10-31T04:09:09;475.47;;;128.43;;
12577;SDS011;6354;51.026;8.968;2022-10-31T04:11:40;281.83;;;91.03;;
12577;SDS011;6354;51.026;8.968;2022-10-31T04:14:13;839.00;;;202.33;;
12577;SDS011;6354;51.026;8.968;2022-10-31T04:16:41;1894.50;;;365.13;;
12577;SDS011;6354;51.026;8.968;2022-10-31T04:19:12;425.57;;;157.70;;
12577;SDS011;6354;51.026;8.968;2022-10-31T04:21:41;384.50;;;120.33;;
12577;SDS011;6354;51.026;8.968;2022-10-31T04:24:10;946.63;;;240.73;;
12577;SDS011;6354;51.026;8.968;2022-10-31T04:26:38;309.67;;;86.73;;
12577;SDS011;6354;51.026;8.968;2022-10-31T04:29:06;1369.80;;;249.23;;
12577;SDS011;6354;51.026;8.968;2022-10-31T04:31:34;261.50;;;120.50;;
12577;SDS011;6354;51.026;8.968;2022-10-31T04:34:02;118.43;;;36.03;;
12577;SDS011;6354;51.026;8.968;2022-10-31T04:36:32;81.47;;;32.00;;
12577;SDS011;6354;51.026;8.968;2022-10-31T04:39:00;20.63;;;14.83;;
12577;SDS011;6354;51.026;8.968;2022-10-31T04:41:29;167.07;;;89.23;;
12577;SDS011;6354;51.026;8.968;2022-10-31T04:43:57;64.47;;;18.77;;
12577;SDS011;6354;51.026;8.968;2022-10-31T04:46:26;425.93;;;249.13;;
12577;SDS011;6354;51.026;8.968;2022-10-31T04:48:54;482.20;;;181.80;;
12577;SDS011;6354;51.026;8.968;2022-10-31T04:51:22;76.10;;;34.87;;
12577;SDS011;6354;51.026;8.968;2022-10-31T04:53:52;254.80;;;102.83;;
12577;SDS011;6354;51.026;8.968;2022-10-31T04:56:20;353.67;;;171.00;;
12577;SDS011;6354;51.026;8.968;2022-10-31T04:58:48;93.40;;;41.57;;
12577;SDS011;6354;51.026;8.968;2022-10-31T05:01:16;62.27;;;22.53;;
12577;SDS011;6354;51.026;8.968;2022-10-31T05:03:44;155.43;;;49.97;;
12577;SDS011;6354;51.026;8.968;2022-10-31T05:06:12;213.97;;;75.30;;
12577;SDS011;6354;51.026;8.968;2022-10-31T05:08:42;296.53;;;128.47;;
12577;SDS011;6354;51.026;8.968;2022-10-31T05:11:12;212.63;;;81.83;;
12577;SDS011;6354;51.026;8.968;2022-10-31T05:13:40;338.47;;;116.03;;
12577;SDS011;6354;51.026;8.968;2022-10-31T05:16:08;172.93;;;63.70;;
12577;SDS011;6354;51.026;8.968;2022-10-31T05:18:36;206.90;;;86.97;;
12577;SDS011;6354;51.026;8.968;2022-10-31T05:21:04;367.20;;;154.60;;
12577;SDS011;6354;51.026;8.968;2022-10-31T05:23:32;127.87;;;61.10;;
12577;SDS011;6354;51.026;8.968;2022-10-31T05:26:00;15.47;;;10.97;;
12577;SDS011;6354;51.026;8.968;2022-10-31T05:28:30;122.73;;;56.80;;
12577;SDS011;6354;51.026;8.968;2022-10-31T05:30:58;279.43;;;103.50;;
12577;SDS011;6354;51.026;8.968;2022-10-31T05:33:26;356.83;;;189.60;;
12577;SDS011;6354;51.026;8.968;2022-10-31T05:35:54;152.03;;;62.10;;
12577;SDS011;6354;51.026;8.968;2022-10-31T05:38:22;125.70;;;57.90;;
12577;SDS011;6354;51.026;8.968;2022-10-31T05:40:53;102.23;;;39.63;;
12577;SDS011;6354;51.026;8.968;2022-10-31T05:43:23;277.37;;;100.87;;
12577;SDS011;6354;51.026;8.968;2022-10-31T05:45:53;32.80;;;20.73;;
12577;SDS011;6354;51.026;8.968;2022-10-31T05:48:22;23.10;;;14.13;;
12577;SDS011;6354;51.026;8.968;2022-10-31T05:50:50;100.43;;;32.83;;
12577;SDS011;6354;51.026;8.968;2022-10-31T05:53:18;22.10;;;15.60;;
12577;SDS011;6354;51.026;8.968;2022-10-31T05:55:46;619.07;;;321.87;;
12577;SDS011;6354;51.026;8.968;2022-10-31T05:58:14;282.90;;;112.73;;
12577;SDS011;6354;51.026;8.968;2022-10-31T06:00:42;249.83;;;119.20;;
12577;SDS011;6354;51.026;8.968;2022-10-31T06:03:12;63.83;;;30.30;;
12577;SDS011;6354;51.026;8.968;2022-10-31T06:05:40;96.03;;;43.87;;
12577;SDS011;6354;51.026;8.968;2022-10-31T06:08:08;217.97;;;97.07;;
12577;SDS011;6354;51.026;8.968;2022-10-31T06:10:36;264.63;;;131.33;;
12577;SDS011;6354;51.026;8.968;2022-10-31T06:13:04;172.93;;;65.87;;
12577;SDS011;6354;51.026;8.968;2022-10-31T06:15:32;275.37;;;145.20;;
12577;SDS011;6354;51.026;8.968;2022-10-31T06:18:01;72.73;;;30.60;;
12577;SDS011;6354;51.026;8.968;2022-10-31T06:20:32;252.43;;;108.17;;
12577;SDS011;6354;51.026;8.968;2022-10-31T06:23:01;142.63;;;60.47;;
12577;SDS011;6354;51.026;8.968;2022-10-31T06:25:30;164.87;;;78.33;;
12577;SDS011;6354;51.026;8.968;2022-10-31T06:27:59;137.67;;;62.07;;
12577;SDS011;6354;51.026;8.968;2022-10-31T06:30:27;38.47;;;22.20;;
12577;SDS011;6354;51.026;8.968;2022-10-31T06:33:00;264.47;;;119.30;;
12577;SDS011;6354;51.026;8.968;2022-10-31T06:35:29;355.23;;;160.50;;
12577;SDS011;6354;51.026;8.968;2022-10-31T06:37:59;325.37;;;138.33;;
12577;SDS011;6354;51.026;8.968;2022-10-31T06:40:28;154.60;;;62.93;;
12577;SDS011;6354;51.026;8.968;2022-10-31T06:42:57;301.50;;;190.50;;
12577;SDS011;6354;51.026;8.968;2022-10-31T06:45:26;72.17;;;32.07;;
12577;SDS011;6354;51.026;8.968;2022-10-31T06:47:55;417.10;;;159.93;;
12577;SDS011;6354;51.026;8.968;2022-10-31T06:50:43;212.03;;;99.57;;
12577;SDS011;6354;51.026;8.968;2022-10-31T06:53:13;234.67;;;93.27;;
12577;SDS011;6354;51.026;8.968;2022-10-31T06:55:42;357.47;;;167.70;;
12577;SDS011;6354;51.026;8.968;2022-10-31T06:58:10;458.90;;;185.73;;
12577;SDS011;6354;51.026;8.968;2022-10-31T07:00:38;606.63;;;284.27;;
12577;SDS011;6354;51.026;8.968;2022-10-31T07:03:09;294.20;;;140.83;;
12577;SDS011;6354;51.026;8.968;2022-10-31T07:05:38;401.77;;;173.97;;
12577;SDS011;6354;51.026;8.968;2022-10-31T07:08:08;515.40;;;242.37;;
12577;SDS011;6354;51.026;8.968;2022-10-31T07:10:39;316.37;;;133.47;;
12577;SDS011;6354;51.026;8.968;2022-10-31T07:13:10;709.60;;;320.47;;
12577;SDS011;6354;51.026;8.968;2022-10-31T07:15:40;293.37;;;129.27;;
12577;SDS011;6354;51.026;8.968;2022-10-31T07:18:09;995.57;;;554.53;;
12577;SDS011;6354;51.026;8.968;2022-10-31T07:20:38;612.97;;;292.77;;
12577;SDS011;6354;51.026;8.968;2022-10-31T07:23:07;198.07;;;65.23;;
12577;SDS011;6354;51.026;8.968;2022-10-31T07:25:36;185.77;;;63.70;;
12577;SDS011;6354;51.026;8.968;2022-10-31T07:28:06;575.57;;;276.80;;
12577;SDS011;6354;51.026;8.968;2022-10-31T07:30:35;918.37;;;415.70;;
12577;SDS011;6354;51.026;8.968;2022-10-31T07:33:04;441.13;;;142.93;;
12577;SDS011;6354;51.026;8.968;2022-10-31T07:35:33;687.80;;;275.37;;
12577;SDS011;6354;51.026;8.968;2022-10-31T07:38:08;519.20;;;217.20;;
12577;SDS011;6354;51.026;8.968;2022-10-31T07:40:38;555.43;;;223.00;;
12577;SDS011;6354;51.026;8.968;2022-10-31T07:43:07;783.07;;;316.40;;
12577;SDS011;6354;51.026;8.968;2022-10-31T07:45:40;351.57;;;131.57;;
12577;SDS011;6354;51.026;8.968;2022-10-31T07:48:08;715.73;;;247.90;;
12577;SDS011;6354;51.026;8.968;2022-10-31T07:50:36;537.27;;;192.23;;
12577;SDS011;6354;51.026;8.968;2022-10-31T07:53:06;670.07;;;278.37;;
12577;SDS011;6354;51.026;8.968;2022-10-31T07:55:36;557.67;;;204.77;;
12577;SDS011;6354;51.026;8.968;2022-10-31T07:58:06;817.13;;;366.07;;
12577;SDS011;6354;51.026;8.968;2022-10-31T08:00:36;664.13;;;275.50;;
12577;SDS011;6354;51.026;8.968;2022-10-31T08:03:05;774.37;;;303.97;;
12577;SDS011;6354;51.026;8.968;2022-10-31T08:05:35;787.37;;;340.47;;
12577;SDS011;6354;51.026;8.968;2022-10-31T08:08:03;957.17;;;384.97;;
12577;SDS011;6354;51.026;8.968;2022-10-31T08:10:33;886.37;;;502.60;;
12577;SDS011;6354;51.026;8.968;2022-10-31T08:13:04;616.70;;;259.43;;
12577;SDS011;6354;51.026;8.968;2022-10-31T08:15:35;519.57;;;273.17;;
12577;SDS011;6354;51.026;8.968;2022-10-31T08:18:05;689.70;;;267.63;;
12577;SDS011;6354;51.026;8.968;2022-10-31T08:20:34;506.90;;;197.60;;
12577;SDS011;6354;51.026;8.968;2022-10-31T08:23:03;590.43;;;194.77;;
12577;SDS011;6354;51.026;8.968;2022-10-31T08:25:33;581.67;;;193.40;;
12577;SDS011;6354;51.026;8.968;2022-10-31T08:28:06;372.67;;;152.80;;
12577;SDS011;6354;51.026;8.968;2022-10-31T08:30:36;312.43;;;141.50;;
12577;SDS011;6354;51.026;8.968;2022-10-31T08:33:05;550.03;;;170.13;;
12577;SDS011;6354;51.026;8.968;2022-10-31T08:35:36;287.67;;;83.83;;
12577;SDS011;6354;51.026;8.968;2022-10-31T08:38:05;1092.17;;;523.10;;
12577;SDS011;6354;51.026;8.968;2022-10-31T08:40:34;234.87;;;78.60;;
12577;SDS011;6354;51.026;8.968;2022-10-31T08:43:03;686.90;;;272.07;;
12577;SDS011;6354;51.026;8.968;2022-10-31T08:45:36;821.20;;;272.87;;
12577;SDS011;6354;51.026;8.968;2022-10-31T08:48:05;393.33;;;118.13;;
12577;SDS011;6354;51.026;8.968;2022-10-31T08:50:37;1004.27;;;316.63;;
12577;SDS011;6354;51.026;8.968;2022-10-31T08:53:08;646.53;;;189.57;;
12577;SDS011;6354;51.026;8.968;2022-10-31T08:55:40;1245.33;;;444.53;;
12577;SDS011;6354;51.026;8.968;2022-10-31T08:58:11;438.90;;;135.80;;
12577;SDS011;6354;51.026;8.968;2022-10-31T09:00:42;803.77;;;245.03;;
12577;SDS011;6354;51.026;8.968;2022-10-31T09:03:11;1103.43;;;427.43;;
12577;SDS011;6354;51.026;8.968;2022-10-31T09:05:40;1126.77;;;412.00;;
12577;SDS011;6354;51.026;8.968;2022-10-31T09:08:09;766.10;;;273.33;;
12577;SDS011;6354;51.026;8.968;2022-10-31T09:10:42;1042.17;;;324.87;;
12577;SDS011;6354;51.026;8.968;2022-10-31T09:13:12;807.27;;;297.63;;
12577;SDS011;6354;51.026;8.968;2022-10-31T09:15:43;821.00;;;236.77;;
12577;SDS011;6354;51.026;8.968;2022-10-31T09:18:13;937.20;;;279.50;;
12577;SDS011;6354;51.026;8.968;2022-10-31T09:20:44;1141.30;;;344.87;;
12577;SDS011;6354;51.026;8.968;2022-10-31T09:23:13;1225.10;;;453.70;;
12577;SDS011;6354;51.026;8.968;2022-10-31T09:25:42;724.90;;;217.87;;
12577;SDS011;6354;51.026;8.968;2022-10-31T09:28:17;1073.93;;;379.50;;
12577;SDS011;6354;51.026;8.968;2022-10-31T09:30:47;1572.03;;;663.97;;
12577;SDS011;6354;51.026;8.968;2022-10-31T09:33:16;1278.50;;;473.53;;
12577;SDS011;6354;51.026;8.968;2022-10-31T09:35:44;1126.93;;;332.73;;
12577;SDS011;6354;51.026;8.968;2022-10-31T09:38:13;1276.87;;;419.33;;
12577;SDS011;6354;51.026;8.968;2022-10-31T09:40:42;990.90;;;309.10;;
12577;SDS011;6354;51.026;8.968;2022-10-31T09:43:13;816.73;;;210.43;;
12577;SDS011;6354;51.026;8.968;2022-10-31T09:45:49;1361.10;;;524.20;;
12577;SDS011;6354;51.026;8.968;2022-10-31T09:51:22;1187.77;;;434.77;;
12577;SDS011;6354;51.026;8.968;2022-10-31T09:53:53;974.43;;;290.60;;
12577;SDS011;6354;51.026;8.968;2022-10-31T09:56:26;1654.90;;;507.30;;
12577;SDS011;6354;51.026;8.968;2022-10-31T09:58:58;1675.23;;;532.47;;
12577;SDS011;6354;51.026;8.968;2022-10-31T10:01:33;1454.23;;;472.07;;
12577;SDS011;6354;51.026;8.968;2022-10-31T10:04:11;922.90;;;278.27;;
12577;SDS011;6354;51.026;8.968;2022-10-31T10:06:50;1180.33;;;393.33;;
12577;SDS011;6354;51.026;8.968;2022-10-31T10:09:20;1244.90;;;395.57;;
12577;SDS011;6354;51.026;8.968;2022-10-31T10:11:54;1146.77;;;297.00;;
12577;SDS011;6354;51.026;8.968;2022-10-31T10:14:40;1121.80;;;371.10;;
12577;SDS011;6354;51.026;8.968;2022-10-31T10:17:34;1061.73;;;342.50;;
12577;SDS011;6354;51.026;8.968;2022-10-31T10:20:13;1646.80;;;486.70;;
12577;SDS011;6354;51.026;8.968;2022-10-31T10:23:11;1032.33;;;305.87;;
12577;SDS011;6354;51.026;8.968;2022-10-31T10:26:01;1372.27;;;454.17;;
12577;SDS011;6354;51.026;8.968;2022-10-31T10:28:38;1632.17;;;481.13;;
12577;SDS011;6354;51.026;8.968;2022-10-31T10:31:11;1418.20;;;496.73;;
12577;SDS011;6354;51.026;8.968;2022-10-31T10:33:43;1732.97;;;577.10;;
12577;SDS011;6354;51.026;8.968;2022-10-31T10:36:16;1240.70;;;421.07;;
12577;SDS011;6354;51.026;8.968;2022-10-31T10:38:50;1236.43;;;349.87;;
12577;SDS011;6354;51.026;8.968;2022-10-31T10:41:22;1470.85;;;420.75;;
12577;SDS011;6354;51.026;8.968;2022-10-31T10:43:57;1875.43;;;549.17;;
12577;SDS011;6354;51.026;8.968;2022-10-31T10:46:26;1451.93;;;520.28;;
12577;SDS011;6354;51.026;8.968;2022-10-31T10:49:24;1343.22;;;459.80;;
12577;SDS011;6354;51.026;8.968;2022-10-31T10:52:01;1480.07;;;504.17;;
12577;SDS011;6354;51.026;8.968;2022-10-31T10:54:58;1614.63;;;551.95;;
12577;SDS011;6354;51.026;8.968;2022-10-31T10:57:38;1245.30;;;361.75;;
12577;SDS011;6354;51.026;8.968;2022-10-31T11:00:18;1413.32;;;555.35;;
12577;SDS011;6354;51.026;8.968;2022-10-31T11:02:49;1287.15;;;402.83;;
12577;SDS011;6354;51.026;8.968;2022-10-31T11:05:25;1248.28;;;427.48;;
12577;SDS011;6354;51.026;8.968;2022-10-31T11:07:57;1540.88;;;516.88;;
12577;SDS011;6354;51.026;8.968;2022-10-31T11:10:25;1582.22;;;570.53;;
12577;SDS011;6354;51.026;8.968;2022-10-31T11:12:58;1329.20;;;490.63;;
12577;SDS011;6354;51.026;8.968;2022-10-31T11:15:31;1246.95;;;481.33;;
12577;SDS011;6354;51.026;8.968;2022-10-31T11:18:04;1249.50;;;537.55;;
12577;SDS011;6354;51.026;8.968;2022-10-31T11:20:33;1962.68;;;603.30;;
12577;SDS011;6354;51.026;8.968;2022-10-31T11:23:15;1753.68;;;707.22;;
12577;SDS011;6354;51.026;8.968;2022-10-31T11:25:48;1380.78;;;520.63;;
12577;SDS011;6354;51.026;8.968;2022-10-31T11:28:18;1272.25;;;399.60;;
12577;SDS011;6354;51.026;8.968;2022-10-31T11:30:47;1745.40;;;670.72;;
12577;SDS011;6354;51.026;8.968;2022-10-31T11:33:19;1596.90;;;585.33;;
12577;SDS011;6354;51.026;8.968;2022-10-31T11:35:58;1932.18;;;634.13;;
12577;SDS011;6354;51.026;8.968;2022-10-31T11:38:31;1254.88;;;469.65;;
12577;SDS011;6354;51.026;8.968;2022-10-31T11:41:05;1701.25;;;527.50;;
12577;SDS011;6354;51.026;8.968;2022-10-31T11:43:38;1659.63;;;627.35;;
12577;SDS011;6354;51.026;8.968;2022-10-31T11:46:15;1462.38;;;458.63;;
12577;SDS011;6354;51.026;8.968;2022-10-31T11:48:50;1465.20;;;514.03;;
12577;SDS011;6354;51.026;8.968;2022-10-31T11:51:20;1804.40;;;582.08;;
12577;SDS011;6354;51.026;8.968;2022-10-31T11:53:51;1564.60;;;552.92;;
12577;SDS011;6354;51.026;8.968;2022-10-31T11:56:27;1999.90;;;787.40;;
12577;SDS011;6354;51.026;8.968;2022-10-31T11:59:05;1533.60;;;651.63;;
12577;SDS011;6354;51.026;8.968;2022-10-31T12:01:46;1999.90;;;671.40;;
12577;SDS011;6354;51.026;8.968;2022-10-31T12:04:17;1807.60;;;693.40;;
12577;SDS011;6354;51.026;8.968;2022-10-31T12:06:45;1853.43;;;701.53;;
12577;SDS011;6354;51.026;8.968;2022-10-31T12:09:18;1849.00;;;675.65;;
12577;SDS011;6354;51.026;8.968;2022-10-31T12:12:02;1672.25;;;696.45;;
12577;SDS011;6354;51.026;8.968;2022-10-31T12:14:42;1934.70;;;675.50;;
12577;SDS011;6354;51.026;8.968;2022-10-31T12:17:20;1995.85;;;766.08;;
12577;SDS011;6354;51.026;8.968;2022-10-31T12:19:57;1744.28;;;665.75;;
12577;SDS011;6354;51.026;8.968;2022-10-31T12:22:33;1646.07;;;611.03;;
12577;SDS011;6354;51.026;8.968;2022-10-31T12:28:17;1999.90;;;637.97;;
12577;SDS011;6354;51.026;8.968;2022-10-31T12:31:14;1532.10;;;520.72;;
12577;SDS011;6354;51.026;8.968;2022-10-31T12:33:54;1749.95;;;666.22;;
12577;SDS011;6354;51.026;8.968;2022-10-31T12:36:41;1999.90;;;841.28;;
12577;SDS011;6354;51.026;8.968;2022-10-31T12:39:25;1862.93;;;735.33;;
12577;SDS011;6354;51.026;8.968;2022-10-31T12:42:06;1948.00;;;639.08;;
12577;SDS011;6354;51.026;8.968;2022-10-31T12:47:53;1917.95;;;680.20;;
12577;SDS011;6354;51.026;8.968;2022-10-31T12:50:56;1999.90;;;750.72;;
12577;SDS011;6354;51.026;8.968;2022-10-31T12:53:35;1972.75;;;639.80;;
12577;SDS011;6354;51.026;8.968;2022-10-31T12:56:15;1813.72;;;583.30;;
12577;SDS011;6354;51.026;8.968;2022-10-31T12:58:53;1999.90;;;746.08;;
12577;SDS011;6354;51.026;8.968;2022-10-31T13:01:29;1999.90;;;753.00;;
12577;SDS011;6354;51.026;8.968;2022-10-31T13:04:02;1999.90;;;644.97;;
12577;SDS011;6354;51.026;8.968;2022-10-31T13:06:38;1999.90;;;811.83;;
12577;SDS011;6354;51.026;8.968;2022-10-31T13:09:13;1999.90;;;628.90;;
12577;SDS011;6354;51.026;8.968;2022-10-31T13:11:46;1995.28;;;726.08;;
12577;SDS011;6354;51.026;8.968;2022-10-31T13:14:20;1855.72;;;549.28;;
12577;SDS011;6354;51.026;8.968;2022-10-31T13:16:53;1787.13;;;777.17;;
12577;SDS011;6354;51.026;8.968;2022-10-31T13:19:24;1999.90;;;630.95;;
12577;SDS011;6354;51.026;8.968;2022-10-31T13:21:57;1996.65;;;737.25;;
12577;SDS011;6354;51.026;8.968;2022-10-31T13:24:33;1999.90;;;700.33;;
12577;SDS011;6354;51.026;8.968;2022-10-31T13:27:11;1999.90;;;846.45;;
12577;SDS011;6354;51.026;8.968;2022-10-31T13:29:47;1999.90;;;786.92;;
12577;SDS011;6354;51.026;8.968;2022-10-31T13:32:21;1795.47;;;611.70;;
12577;SDS011;6354;51.026;8.968;2022-10-31T13:34:51;1999.90;;;826.15;;
12577;SDS011;6354;51.026;8.968;2022-10-31T13:37:23;1696.55;;;529.20;;
12577;SDS011;6354;51.026;8.968;2022-10-31T13:40:09;1999.90;;;706.47;;
12577;SDS011;6354;51.026;8.968;2022-10-31T13:42:50;1999.90;;;660.65;;
12577;SDS011;6354;51.026;8.968;2022-10-31T13:45:23;1999.90;;;814.03;;
12577;SDS011;6354;51.026;8.968;2022-10-31T13:47:56;1999.90;;;814.08;;
12577;SDS011;6354;51.026;8.968;2022-10-31T13:50:27;1999.90;;;733.53;;
12577;SDS011;6354;51.026;8.968;2022-10-31T13:53:12;1999.90;;;823.90;;
12577;SDS011;6354;51.026;8.968;2022-10-31T13:55:48;1999.90;;;761.13;;
12577;SDS011;6354;51.026;8.968;2022-10-31T13:58:22;1999.90;;;747.58;;
12577;SDS011;6354;51.026;8.968;2022-10-31T14:00:59;1999.90;;;766.80;;
12577;SDS011;6354;51.026;8.968;2022-10-31T14:03:43;1841.47;;;520.70;;
12577;SDS011;6354;51.026;8.968;2022-10-31T14:06:34;1999.90;;;698.75;;
12577;SDS011;6354;51.026;8.968;2022-10-31T14:09:14;1999.90;;;882.00;;
12577;SDS011;6354;51.026;8.968;2022-10-31T14:11:50;1999.90;;;873.72;;
12577;SDS011;6354;51.026;8.968;2022-10-31T14:14:19;1999.90;;;767.63;;
12577;SDS011;6354;51.026;8.968;2022-10-31T14:16:53;1999.90;;;719.63;;
12577;SDS011;6354;51.026;8.968;2022-10-31T14:19:24;1999.90;;;733.42;;
12577;SDS011;6354;51.026;8.968;2022-10-31T14:21:53;1932.20;;;625.95;;
12577;SDS011;6354;51.026;8.968;2022-10-31T14:24:35;1891.28;;;664.78;;
12577;SDS011;6354;51.026;8.968;2022-10-31T14:30:14;1999.90;;;713.33;;
12577;SDS011;6354;51.026;8.968;2022-10-31T14:32:47;1999.90;;;717.38;;
12577;SDS011;6354;51.026;8.968;2022-10-31T14:35:19;1952.78;;;580.08;;
12577;SDS011;6354;51.026;8.968;2022-10-31T14:37:58;1659.13;;;580.97;;
12577;SDS011;6354;51.026;8.968;2022-10-31T14:40:46;1999.90;;;678.60;;
12577;SDS011;6354;51.026;8.968;2022-10-31T14:43:33;1999.90;;;800.13;;
12577;SDS011;6354;51.026;8.968;2022-10-31T14:46:14;1729.70;;;529.53;;
12577;SDS011;6354;51.026;8.968;2022-10-31T14:48:54;1963.05;;;672.67;;
12577;SDS011;6354;51.026;8.968;2022-10-31T14:51:38;1999.90;;;887.35;;